Bavaria

Go HERE for most recent data if this page is not up to date.

Jump to table bottom
Date Time Temp F RH % AVG Wind Max Wind Wind Dir 24 Snow Depth
*12/04/22 11 26.0 75 9 18 NW - 307 0.0 40.4
*12/04/22 10 24.5 80 11 21 SW - 224 0.1 40.5
*12/04/22 09 22.2 82 11 20 SW - 227 0.1 40.6
*12/04/22 08 22.9 44 9 22 NW - 316 0.2 40.8
*12/04/22 07 24.3 18 9 16 W - 266 0.3 41.0
*12/04/22 06 23.9 21 7 16 NW - 315 0.3 41.1
*12/04/22 05 20.8 22 7 13 SW - 232 0.2 41.1
*12/04/22 04 19.6 24 7 12 W - 263 0.1 41.0
*12/04/22 03 19.0 26 7 10 NW - 323 0.3 41.1
*12/04/22 02 18.8 25 6 10 W - 257 0.2 41.4
*12/04/22 01 19.5 24 3 10 W - 266 0.2 41.5
*12/04/22 00 18.0 24 2 5 NW - 313 0.1 41.3
*12/03/22 23 18.1 23 4 11 NW - 324 0.1 41.4
*12/03/22 22 18.6 24 7 13 W - 282 0.0 41.3
*12/03/22 21 19.5 24 12 17 SW - 241 0.2 41.3
*12/03/22 20 18.6 26 13 18 SW - 239 0.1 41.3
*12/03/22 19 18.5 26 13 22 W - 251 0.1 41.4
*12/03/22 18 18.4 25 12 20 SW - 230 0.2 41.5
*12/03/22 17 18.2 24 12 18 W - 269 0.2 41.3
*12/03/22 16 20.7 19 12 20 SW - 232 0.0 41.2
*12/03/22 15 21.2 17 11 21 W - 252 -0.0 41.3
*12/03/22 14 21.9 19 12 21 SW - 229 0.0 41.4
*12/03/22 13 20.6 23 12 18 W - 292 -0.0 41.6
*12/03/22 12 21.1 27 13 18 SW - 235 0.0 41.7
*12/03/22 11 18.9 27 12 17 SW - 238 0.1 42.0
*12/03/22 10 17.6 29 16 25 W - 263 0.2 42.2
*12/03/22 09 14.6 32 15 23 W - 269 0.3 42.3
*12/03/22 08 13.3 33 15 23 SW - 229 0.4 42.4
*12/03/22 07 12.5 35 12 21 W - 268 0.4 42.6
*12/03/22 06 11.1 38 8 20 SW - 246 0.3 42.7
*12/03/22 05 8.7 42 9 21 W - 272 0.2 42.7
*12/03/22 04 10.3 31 10 17 W - 263 0.3 42.8
*12/03/22 03 8.0 32 11 21 SW - 222 0.3 43.0
*12/03/22 02 8.1 29 13 23 W - 256 0.3 43.0
*12/03/22 01 6.9 33 10 18 SW - 230 0.3 43.1
*12/03/22 00 4.7 44 9 17 W - 268 0.3 43.1
.